Terminal Aerodrome Forecast
Issued by NWS

Home | Current Version | Previous Version | Text Only | Print | Product List | Glossary On
Versions: 1 2 3 4 5 6 7 8 9 10 11 12 13 14 15 16 17 18 19 20 21 22 23 24 25
000
FTUS45 KBOI 210520
TAFJER
TAF
KJER 210520Z 2106/2206 VRB04KT P6SM SKC
     FM211600 08010KT P6SM SCT100 OVC200
     FM212100 09009KT P6SM VCSH SCT090 OVC200
      TEMPO 2121/2124 -SHRA BKN090
     FM220000 09008KT P6SM -SHRA SCT050 OVC090=

USA.gov is the U.S. government's official web portal to all federal, state and local government web resources and services.